Time;durP1;ratioP1;P1;durP2;ratioP2;P2;SDS_P1;SDS_P2;PMS_P1;PMS_P2;Temp;Humidity;BMP_temperature;BMP_pressure;BME280_temperature;BME280_humidity;BME280_pressure;Samples;Min_cycle;Max_cycle;Signal;HPM_P1;HPM_P2
2023/05/29 00:01:41;;;;;;;8.85;2.60;;;;;;;;;;4994507;28;20040;-79
2023/05/29 00:04:06;;;;;;;7.50;2.78;;;;;;;;;;5006169;28;20037;-79
2023/05/29 00:06:32;;;;;;;7.05;2.65;;;;;;;;;;5007608;28;20405;-79
2023/05/29 00:08:57;;;;;;;6.32;2.40;;;;;;;;;;5001282;28;20038;-79
2023/05/29 00:11:25;;;;;;;8.43;2.78;;;;;;;;;;5006253;28;20175;-79
2023/05/29 00:13:50;;;;;;;;;;;;;;;;;;5025786;28;20472;-79
2023/05/29 00:16:17;;;;;;;4.90;1.90;;;;;;;;;;5008253;28;19921;-79
2023/05/29 00:18:46;;;;;;;7.20;2.30;;;;;;;;;;5007520;28;20041;-79
2023/05/29 00:21:13;;;;;;;7.68;2.80;;;;;;;;;;5026265;28;20492;-79
2023/05/29 00:23:39;;;;;;;6.22;2.10;;;;;;;;;;5004516;28;20448;-79
2023/05/29 00:26:04;;;;;;;5.78;2.38;;;;;;;;;;5017384;28;20124;-80
2023/05/29 00:28:30;;;;;;;10.40;2.75;;;;;;;;;;5028371;28;20044;-79
2023/05/29 00:30:56;;;;;;;5.95;2.38;;;;;;;;;;5028384;28;20480;-79
2023/05/29 00:33:22;;;;;;;7.75;2.53;;;;;;;;;;5028758;28;20071;-79
2023/05/29 00:35:50;;;;;;;7.85;2.35;;;;;;;;;;5010575;28;20056;-79
2023/05/29 00:38:16;;;;;;;6.30;2.42;;;;;;;;;;5041413;28;20091;-80
2023/05/29 00:40:42;;;;;;;6.03;2.15;;;;;;;;;;4979748;28;20051;-80
2023/05/29 00:43:08;;;;;;;7.72;2.35;;;;;;;;;;5009267;28;20029;-79
2023/05/29 00:45:38;;;;;;;7.90;2.83;;;;;;;;;;5027863;28;20036;-79
2023/05/29 00:48:05;;;;;;;6.38;2.35;;;;;;;;;;5028016;28;20040;-79
2023/05/29 00:50:31;;;;;;;6.87;2.30;;;;;;;;;;5028115;28;20415;-79
2023/05/29 00:52:57;;;;;;;7.32;2.30;;;;;;;;;;4991331;28;20056;-79
2023/05/29 00:55:23;;;;;;;8.68;2.47;;;;;;;;;;5011632;28;20472;-79
2023/05/29 00:57:49;;;;;;;8.23;2.70;;;;;;;;;;5028177;28;20025;-79
2023/05/29 01:00:15;;;;;;;5.00;2.15;;;;;;;;;;4995959;28;20037;-79
2023/05/29 01:02:44;;;;;;;5.50;2.20;;;;;;;;;;5002104;28;20444;-79
2023/05/29 01:05:12;;;;;;;5.72;2.65;;;;;;;;;;5028281;28;20472;-79
2023/05/29 01:07:38;;;;;;;;;;;;;;;;;;5019567;28;20044;-79
2023/05/29 01:10:05;;;;;;;7.68;2.70;;;;;;;;;;5024882;28;19999;-79
2023/05/29 01:12:56;;;;;;;5.63;2.40;;;;;;;;;;5019556;28;20036;-79
2023/05/29 01:15:34;;;;;;;4.95;2.10;;;;;;;;;;5004095;28;20029;-79
2023/05/29 01:18:20;;;;;;;5.65;2.20;;;;;;;;;;5000568;28;20307;-79
2023/05/29 01:20:56;;;;;;;6.43;2.65;;;;;;;;;;5020228;28;20046;-79
2023/05/29 01:23:40;;;;;;;6.28;2.22;;;;;;;;;;5014269;28;20766;-79
2023/05/29 01:26:12;;;;;;;3.83;1.95;;;;;;;;;;5013989;28;20087;-79
2023/05/29 01:28:42;;;;;;;6.47;2.08;;;;;;;;;;5007768;28;20045;-79
2023/05/29 01:31:10;;;;;;;6.03;2.40;;;;;;;;;;5024855;28;20548;-79
2023/05/29 01:33:43;;;;;;;7.40;2.17;;;;;;;;;;5023150;28;20033;-79
2023/05/29 01:36:10;;;;;;;6.05;2.20;;;;;;;;;;5001001;28;20082;-79
2023/05/29 01:38:36;;;;;;;6.85;2.13;;;;;;;;;;5007575;28;20549;-79
2023/05/29 01:41:03;;;;;;;4.80;1.90;;;;;;;;;;4999032;28;20040;-79
2023/05/29 01:43:30;;;;;;;5.07;2.35;;;;;;;;;;5023351;28;20109;-79
2023/05/29 01:45:58;;;;;;;8.70;2.40;;;;;;;;;;4992053;28;20404;-79
2023/05/29 01:48:25;;;;;;;6.15;2.03;;;;;;;;;;4992201;28;20136;-79
2023/05/29 01:50:51;;;;;;;5.50;2.30;;;;;;;;;;5024383;28;20033;-79
2023/05/29 01:53:16;;;;;;;7.07;2.00;;;;;;;;;;5006383;28;20044;-78
2023/05/29 01:55:43;;;;;;;8.38;2.40;;;;;;;;;;5020204;28;20052;-78
2023/05/29 01:58:08;;;;;;;6.65;2.17;;;;;;;;;;5000419;28;20116;-79
2023/05/29 02:00:34;;;;;;;5.13;2.08;;;;;;;;;;5004774;28;20138;-78
2023/05/29 02:03:02;;;;;;;5.07;2.00;;;;;;;;;;5021488;28;20112;-79
2023/05/29 02:05:27;;;;;;;7.03;2.28;;;;;;;;;;4986565;28;20056;-78
2023/05/29 02:07:53;;;;;;;7.45;2.25;;;;;;;;;;5002329;28;20038;-78
2023/05/29 02:10:18;;;;;;;6.90;2.03;;;;;;;;;;5015014;28;20043;-78
2023/05/29 02:12:46;;;;;;;6.50;1.90;;;;;;;;;;4985327;28;20049;-78
2023/05/29 02:15:11;;;;;;;7.05;1.80;;;;;;;;;;4978748;28;20116;-78
2023/05/29 02:17:41;;;;;;;5.55;2.17;;;;;;;;;;4999933;28;20045;-78
2023/05/29 02:20:07;;;;;;;5.75;1.92;;;;;;;;;;5013483;28;20148;-78
2023/05/29 02:22:34;;;;;;;5.38;2.17;;;;;;;;;;4992657;28;20045;-78
2023/05/29 02:25:01;;;;;;;5.87;2.47;;;;;;;;;;5023252;28;20755;-78
2023/05/29 02:27:27;;;;;;;7.33;2.50;;;;;;;;;;5021563;28;20042;-77
2023/05/29 02:29:53;;;;;;;7.07;2.50;;;;;;;;;;5005845;28;20022;-78
2023/05/29 02:32:22;;;;;;;5.65;2.10;;;;;;;;;;5020709;28;20037;-78
2023/05/29 02:34:47;;;;;;;6.95;2.35;;;;;;;;;;4967274;28;20045;-78
2023/05/29 02:37:15;;;;;;;6.97;2.10;;;;;;;;;;5014263;28;20038;-77
2023/05/29 02:39:42;;;;;;;6.03;2.30;;;;;;;;;;4987429;28;20052;-77
2023/05/29 02:42:08;;;;;;;6.27;2.40;;;;;;;;;;5006151;28;20034;-77
2023/05/29 02:44:33;;;;;;;5.30;2.05;;;;;;;;;;5022160;28;20053;-77
2023/05/29 02:46:59;;;;;;;5.78;2.25;;;;;;;;;;5016332;28;20030;-79
2023/05/29 02:49:26;;;;;;;4.80;2.30;;;;;;;;;;5018956;28;20090;-79
2023/05/29 02:51:56;;;;;;;8.35;2.53;;;;;;;;;;5022121;28;20037;-79
2023/05/29 02:54:23;;;;;;;4.45;1.80;;;;;;;;;;5000431;28;20861;-79
2023/05/29 02:56:50;;;;;;;6.32;1.90;;;;;;;;;;5004338;28;20128;-79
2023/05/29 02:59:18;;;;;;;6.65;2.13;;;;;;;;;;5022147;28;20048;-79
2023/05/29 03:01:43;;;;;;;7.18;2.53;;;;;;;;;;5013028;28;20045;-79
2023/05/29 03:04:13;;;;;;;6.60;2.47;;;;;;;;;;5006973;28;20092;-79
2023/05/29 03:06:42;;;;;;;5.82;2.55;;;;;;;;;;4995918;28;20041;-79
2023/05/29 03:09:07;;;;;;;6.13;2.30;;;;;;;;;;5010947;28;20049;-79
2023/05/29 03:11:36;;;;;;;7.75;2.47;;;;;;;;;;5021595;28;20029;-79
2023/05/29 03:14:02;;;;;;;7.07;2.72;;;;;;;;;;5021126;28;20064;-79
2023/05/29 03:16:29;;;;;;;6.53;2.65;;;;;;;;;;5005301;28;20029;-79
2023/05/29 03:18:56;;;;;;;8.02;2.72;;;;;;;;;;5002470;28;20063;-79
2023/05/29 03:21:21;;;;;;;10.00;2.47;;;;;;;;;;5024849;28;20069;-79
2023/05/29 03:23:47;;;;;;;5.97;2.40;;;;;;;;;;5016361;28;20065;-79
2023/05/29 03:26:13;;;;;;;5.63;2.17;;;;;;;;;;5022469;28;20500;-79
2023/05/29 03:28:40;;;;;;;8.00;2.63;;;;;;;;;;5018762;28;20427;-79
2023/05/29 03:31:55;;;;;;;8.32;2.63;;;;;;;;;;4997414;28;20059;-79
2023/05/29 03:34:21;;;;;;;8.55;2.67;;;;;;;;;;5031402;28;20040;-79
2023/05/29 03:36:47;;;;;;;7.07;2.75;;;;;;;;;;5025708;28;20765;-79
2023/05/29 03:39:16;;;;;;;8.55;3.03;;;;;;;;;;5029261;28;20502;-79
2023/05/29 03:41:42;;;;;;;6.78;2.97;;;;;;;;;;5045856;28;20160;-80
2023/05/29 03:44:09;;;;;;;5.93;2.45;;;;;;;;;;5029595;28;20040;-79
2023/05/29 03:46:35;;;;;;;8.35;2.50;;;;;;;;;;5026922;28;20057;-79
2023/05/29 03:49:00;;;;;;;6.00;2.50;;;;;;;;;;5024338;28;20138;-79
2023/05/29 03:51:26;;;;;;;7.70;2.75;;;;;;;;;;5029394;28;20045;-79
2023/05/29 03:53:52;;;;;;;7.50;2.80;;;;;;;;;;5013550;28;20078;-79
2023/05/29 03:56:17;;;;;;;6.90;2.55;;;;;;;;;;5012811;28;20448;-79
2023/05/29 03:58:44;;;;;;;8.70;2.80;;;;;;;;;;4994806;28;20094;-79
2023/05/29 04:01:10;;;;;;;7.93;2.50;;;;;;;;;;5008734;28;20041;-80
2023/05/29 04:03:37;;;;;;;7.15;2.63;;;;;;;;;;5010739;28;20052;-79
2023/05/29 04:06:03;;;;;;;5.90;2.40;;;;;;;;;;5008769;28;20423;-80
2023/05/29 04:08:30;;;;;;;6.30;2.35;;;;;;;;;;5011664;28;20044;-79
2023/05/29 04:10:55;;;;;;;6.93;2.33;;;;;;;;;;5026838;28;20553;-79
2023/05/29 04:13:21;;;;;;;5.43;2.50;;;;;;;;;;5000611;28;20033;-79
2023/05/29 04:15:48;;;;;;;6.70;2.38;;;;;;;;;;5013187;28;20025;-79
2023/05/29 04:18:13;;;;;;;5.65;2.25;;;;;;;;;;5005895;28;20048;-80
2023/05/29 04:20:38;;;;;;;5.47;2.30;;;;;;;;;;5024990;28;20049;-79
2023/05/29 04:23:04;;;;;;;6.03;2.25;;;;;;;;;;4988684;28;20040;-79
2023/05/29 04:25:29;;;;;;;6.97;2.38;;;;;;;;;;4975226;28;20121;-79
2023/05/29 04:27:55;;;;;;;6.97;2.47;;;;;;;;;;5015320;28;20705;-79
2023/05/29 04:30:21;;;;;;;6.70;2.20;;;;;;;;;;4965466;28;20044;-79
2023/05/29 04:32:47;;;;;;;5.88;2.28;;;;;;;;;;4999973;28;20677;-79
2023/05/29 04:35:13;;;;;;;5.82;2.20;;;;;;;;;;5007629;28;20034;-79
2023/05/29 04:37:39;;;;;;;5.72;1.90;;;;;;;;;;5023857;28;20056;-79
2023/05/29 04:40:09;;;;;;;5.65;2.08;;;;;;;;;;5007754;28;20041;-80
2023/05/29 04:42:37;;;;;;;8.05;1.85;;;;;;;;;;5006380;28;20111;-79
2023/05/29 04:45:06;;;;;;;6.03;2.20;;;;;;;;;;5019770;28;20500;-79
2023/05/29 04:47:36;;;;;;;5.50;2.10;;;;;;;;;;5023543;28;20091;-79
2023/05/29 04:50:02;;;;;;;5.15;2.15;;;;;;;;;;5026299;28;20497;-79
2023/05/29 04:52:28;;;;;;;5.88;2.10;;;;;;;;;;5017154;28;20116;-79
2023/05/29 04:54:56;;;;;;;5.28;2.17;;;;;;;;;;4990093;28;20036;-79
2023/05/29 04:57:22;;;;;;;5.63;1.80;;;;;;;;;;4991209;28;20553;-78
2023/05/29 04:59:47;;;;;;;4.90;1.77;;;;;;;;;;5009183;28;20033;-80
2023/05/29 05:02:13;;;;;;;7.18;2.17;;;;;;;;;;5017590;28;20045;-79
2023/05/29 05:04:40;;;;;;;4.90;2.15;;;;;;;;;;5025368;28;20046;-79
2023/05/29 05:07:15;;;;;;;5.72;2.03;;;;;;;;;;5005599;28;20053;-80
2023/05/29 05:09:41;;;;;;;5.53;1.85;;;;;;;;;;5020488;28;20491;-80
2023/05/29 05:12:07;;;;;;;4.80;1.65;;;;;;;;;;5025421;28;20100;-78
2023/05/29 05:14:34;;;;;;;5.07;2.10;;;;;;;;;;4968690;28;20145;-79
2023/05/29 05:17:00;;;;;;;4.10;1.70;;;;;;;;;;5012668;28;20041;-77
2023/05/29 05:19:25;;;;;;;4.35;1.90;;;;;;;;;;5007884;28;20045;-80
2023/05/29 05:21:51;;;;;;;5.13;1.80;;;;;;;;;;5006712;28;20053;-80
2023/05/29 05:24:16;;;;;;;4.80;1.92;;;;;;;;;;4990100;28;20448;-77
2023/05/29 05:26:42;;;;;;;4.75;1.60;;;;;;;;;;5024375;28;20057;-78
2023/05/29 05:29:07;;;;;;;4.90;1.90;;;;;;;;;;5003888;28;20172;-77
2023/05/29 05:31:35;;;;;;;7.45;1.98;;;;;;;;;;5021670;28;20048;-79
2023/05/29 05:34:00;;;;;;;4.47;1.83;;;;;;;;;;5023504;28;20049;-80
2023/05/29 05:36:28;;;;;;;5.60;2.20;;;;;;;;;;5006266;28;20056;-79
2023/05/29 05:38:53;;;;;;;5.70;1.45;;;;;;;;;;4997204;28;20587;-80
2023/05/29 05:41:20;;;;;;;3.67;1.48;;;;;;;;;;5004147;28;20045;-79
2023/05/29 05:43:46;;;;;;;3.95;1.52;;;;;;;;;;5021979;28;20043;-80
2023/05/29 05:46:12;;;;;;;5.38;1.70;;;;;;;;;;5001150;28;20033;-79
2023/05/29 05:48:38;;;;;;;5.93;1.70;;;;;;;;;;5001192;28;20128;-79
2023/05/29 05:51:05;;;;;;;4.45;1.40;;;;;;;;;;5013947;28;20645;-79
2023/05/29 05:53:30;;;;;;;4.25;1.60;;;;;;;;;;5018366;28;25009;-79
2023/05/29 05:56:01;;;;;;;4.43;1.50;;;;;;;;;;5000341;28;20042;-79
2023/05/29 05:58:27;;;;;;;3.92;1.30;;;;;;;;;;5020009;28;20045;-79
2023/05/29 06:00:53;;;;;;;3.78;1.48;;;;;;;;;;5019483;28;20041;-80
2023/05/29 06:03:21;;;;;;;4.27;1.70;;;;;;;;;;5016115;28;20029;-79
2023/05/29 06:05:47;;;;;;;5.00;1.60;;;;;;;;;;5034808;28;20284;-79
2023/05/29 06:08:15;;;;;;;5.57;1.70;;;;;;;;;;5024054;28;20527;-80
2023/05/29 06:10:40;;;;;;;3.88;1.52;;;;;;;;;;5039798;28;20579;-79
2023/05/29 06:13:06;;;;;;;5.35;1.58;;;;;;;;;;4996988;28;20041;-79
2023/05/29 06:15:31;;;;;;;3.22;1.30;;;;;;;;;;5011769;28;20077;-80
2023/05/29 06:17:58;;;;;;;4.47;1.50;;;;;;;;;;5029749;28;20604;-79
2023/05/29 06:20:26;;;;;;;3.83;1.45;;;;;;;;;;5021616;28;20129;-79
2023/05/29 06:22:54;;;;;;;2.97;1.20;;;;;;;;;;4996931;28;20095;-79
2023/05/29 06:25:19;;;;;;;2.90;1.30;;;;;;;;;;4996870;28;20048;-79
2023/05/29 06:27:46;;;;;;;4.50;1.50;;;;;;;;;;5023486;28;20783;-79
2023/05/29 06:30:13;;;;;;;3.43;1.40;;;;;;;;;;4987352;28;20462;-79
2023/05/29 06:32:41;;;;;;;2.70;1.10;;;;;;;;;;5023257;28;20041;-79
2023/05/29 06:35:08;;;;;;;3.13;1.10;;;;;;;;;;5022432;28;20029;-79
2023/05/29 06:37:34;;;;;;;3.55;1.42;;;;;;;;;;5022181;28;20041;-80
2023/05/29 06:39:59;;;;;;;3.53;1.35;;;;;;;;;;5022126;28;20424;-79
2023/05/29 06:42:25;;;;;;;3.90;1.50;;;;;;;;;;5012160;28;20047;-79
2023/05/29 06:44:51;;;;;;;2.35;1.00;;;;;;;;;;5024752;28;20044;-80
2023/05/29 06:47:16;;;;;;;3.35;1.38;;;;;;;;;;5022388;28;20033;-80
2023/05/29 06:49:42;;;;;;;3.28;1.20;;;;;;;;;;5005792;28;20063;-79
2023/05/29 06:52:07;;;;;;;4.22;1.33;;;;;;;;;;4999562;28;20415;-80
2023/05/29 06:54:33;;;;;;;4.03;1.20;;;;;;;;;;5022523;28;20040;-80
2023/05/29 06:56:58;;;;;;;2.50;1.20;;;;;;;;;;5005425;28;20072;-80
2023/05/29 06:59:24;;;;;;;3.88;1.27;;;;;;;;;;5005821;28;20037;-80
2023/05/29 07:01:49;;;;;;;3.85;1.30;;;;;;;;;;5005859;28;20041;-80
2023/05/29 07:04:15;;;;;;;2.60;1.08;;;;;;;;;;5021519;28;20045;-80
2023/05/29 07:06:42;;;;;;;3.70;1.30;;;;;;;;;;5021794;28;20600;-80
2023/05/29 07:09:08;;;;;;;3.80;1.33;;;;;;;;;;4990438;28;20488;-79
2023/05/29 07:11:34;;;;;;;3.22;1.20;;;;;;;;;;4989541;28;20037;-79
2023/05/29 07:13:59;;;;;;;4.28;1.30;;;;;;;;;;5019511;28;20068;-80
2023/05/29 07:16:26;;;;;;;2.85;1.00;;;;;;;;;;5014682;28;20383;-79
2023/05/29 07:18:54;;;;;;;2.90;1.38;;;;;;;;;;5001355;28;20049;-79
2023/05/29 07:21:20;;;;;;;3.78;1.40;;;;;;;;;;4990617;28;20045;-80
2023/05/29 07:23:45;;;;;;;2.53;1.20;;;;;;;;;;5004899;28;20034;-79
2023/05/29 07:26:11;;;;;;;3.20;1.17;;;;;;;;;;5022079;28;20043;-79
2023/05/29 07:28:37;;;;;;;2.83;1.10;;;;;;;;;;5005889;28;20497;-79
2023/05/29 07:31:03;;;;;;;3.25;1.05;;;;;;;;;;5002370;28;20747;-79
2023/05/29 07:33:29;;;;;;;3.95;1.13;;;;;;;;;;4970464;28;20034;-79
2023/05/29 07:35:56;;;;;;;3.28;1.20;;;;;;;;;;5003288;28;20512;-79
2023/05/29 07:38:23;;;;;;;3.45;1.40;;;;;;;;;;4993873;28;20037;-79
2023/05/29 07:40:48;;;;;;;3.33;1.30;;;;;;;;;;5003528;28;20401;-79
2023/05/29 07:43:13;;;;;;;2.40;1.10;;;;;;;;;;5017611;28;20036;-80
2023/05/29 07:45:39;;;;;;;3.33;1.05;;;;;;;;;;5003616;28;20037;-79
2023/05/29 07:48:05;;;;;;;3.50;1.55;;;;;;;;;;5022831;28;20041;-80
2023/05/29 07:50:30;;;;;;;3.17;1.33;;;;;;;;;;5021468;28;22776;-79
2023/05/29 07:52:57;;;;;;;3.42;1.35;;;;;;;;;;4999585;28;20056;-80
2023/05/29 07:55:23;;;;;;;3.53;1.27;;;;;;;;;;5020567;28;20029;-80
2023/05/29 07:57:48;;;;;;;4.55;1.35;;;;;;;;;;5000641;28;20060;-80
2023/05/29 08:00:15;;;;;;;6.53;1.40;;;;;;;;;;4999690;28;20362;-79
2023/05/29 08:02:42;;;;;;;4.70;1.10;;;;;;;;;;5022156;28;20056;-80
2023/05/29 08:05:09;;;;;;;4.43;1.23;;;;;;;;;;5016189;28;20037;-80
2023/05/29 08:07:37;;;;;;;;;;;;;;;;;;5021734;28;20046;-80
2023/05/29 08:10:05;;;;;;;4.25;1.13;;;;;;;;;;5024355;28;19917;-80
2023/05/29 08:12:31;;;;;;;3.25;1.45;;;;;;;;;;5011769;28;20055;-80
2023/05/29 08:14:57;;;;;;;2.75;1.13;;;;;;;;;;5006092;28;20037;-80
2023/05/29 08:17:22;;;;;;;2.70;1.15;;;;;;;;;;5005139;28;20488;-80
2023/05/29 08:19:48;;;;;;;2.83;1.00;;;;;;;;;;5008758;28;20452;-80
2023/05/29 08:22:14;;;;;;;3.05;1.20;;;;;;;;;;5008446;28;20400;-80
2023/05/29 08:24:40;;;;;;;4.00;1.38;;;;;;;;;;5042182;28;20029;-80
2023/05/29 08:27:06;;;;;;;3.38;1.38;;;;;;;;;;5025641;28;20516;-80
2023/05/29 08:29:32;;;;;;;4.43;1.15;;;;;;;;;;4998452;28;20067;-80
2023/05/29 08:31:57;;;;;;;4.72;1.35;;;;;;;;;;4997826;28;20084;-80
2023/05/29 08:34:23;;;;;;;4.65;1.30;;;;;;;;;;5023181;28;20029;-80
2023/05/29 08:36:50;;;;;;;3.65;1.50;;;;;;;;;;4992356;28;20037;-80
2023/05/29 08:39:15;;;;;;;4.32;1.30;;;;;;;;;;5018068;28;20033;-80
2023/05/29 08:42:06;;;;;;;3.83;1.40;;;;;;;;;;5024538;28;20084;-80
2023/05/29 08:44:32;;;;;;;3.20;1.40;;;;;;;;;;4995060;28;20048;-80
2023/05/29 08:47:01;;;;;;;4.43;1.48;;;;;;;;;;5023075;28;20041;-80
2023/05/29 08:49:29;;;;;;;4.75;1.38;;;;;;;;;;5004082;28;20364;-80
2023/05/29 08:51:57;;;;;;;;;;;;;;;;;;5017740;28;20143;-80
2023/05/29 08:54:27;;;;;;;3.53;1.40;;;;;;;;;;5017416;28;19920;-80
2023/05/29 08:56:58;;;;;;;3.15;1.20;;;;;;;;;;5017162;28;20345;-81
2023/05/29 08:59:27;;;;;;;2.55;1.15;;;;;;;;;;5027809;28;20175;-80
2023/05/29 09:01:52;;;;;;;3.17;1.20;;;;;;;;;;5005859;28;20041;-80
2023/05/29 09:04:18;;;;;;;2.90;1.17;;;;;;;;;;5023633;28;20388;-80
2023/05/29 09:06:44;;;;;;;8.80;1.52;;;;;;;;;;4996523;28;20397;-80
2023/05/29 09:09:11;;;;;;;3.28;1.30;;;;;;;;;;5024250;28;20033;-80
2023/05/29 09:11:36;;;;;;;3.53;1.20;;;;;;;;;;5003870;28;20072;-81
2023/05/29 09:14:03;;;;;;;3.15;1.25;;;;;;;;;;5005494;28;20051;-78
2023/05/29 09:16:31;;;;;;;3.00;1.00;;;;;;;;;;4990647;28;20030;-78
2023/05/29 09:19:09;;;;;;;3.88;1.38;;;;;;;;;;5023578;28;20045;-79
2023/05/29 09:21:36;;;;;;;3.95;1.60;;;;;;;;;;5023850;28;20539;-79
2023/05/29 09:24:15;;;;;;;3.88;1.40;;;;;;;;;;4998526;28;20142;-79
2023/05/29 09:26:49;;;;;;;4.72;1.60;;;;;;;;;;5002917;28;20087;-79
2023/05/29 09:29:15;;;;;;;2.88;1.17;;;;;;;;;;5024239;28;20040;-79
2023/05/29 09:31:52;;;;;;;4.03;1.23;;;;;;;;;;4999624;28;20475;-80
2023/05/29 09:34:18;;;;;;;2.85;1.30;;;;;;;;;;5019944;28;20048;-79
2023/05/29 09:36:43;;;;;;;3.25;1.30;;;;;;;;;;4999679;28;20038;-80
2023/05/29 09:39:09;;;;;;;3.15;1.30;;;;;;;;;;4995671;28;20030;-78
2023/05/29 09:41:45;;;;;;;3.45;1.20;;;;;;;;;;5015424;28;20041;-79
2023/05/29 09:44:16;;;;;;;3.90;1.27;;;;;;;;;;4987974;28;20030;-79
2023/05/29 09:46:46;;;;;;;3.28;1.20;;;;;;;;;;5024028;28;20091;-78
2023/05/29 09:49:13;;;;;;;3.75;1.40;;;;;;;;;;4984754;28;20067;-79
2023/05/29 09:51:42;;;;;;;4.97;1.60;;;;;;;;;;4994747;28;20038;-79
2023/05/29 09:54:15;;;;;;;3.03;1.35;;;;;;;;;;5006324;28;20037;-79
2023/05/29 09:56:42;;;;;;;5.82;1.50;;;;;;;;;;4999934;28;20556;-78
2023/05/29 09:59:11;;;;;;;5.00;1.50;;;;;;;;;;5007632;28;20113;-78
2023/05/29 10:01:37;;;;;;;4.22;1.58;;;;;;;;;;5006650;28;20037;-78
2023/05/29 10:04:03;;;;;;;4.03;1.45;;;;;;;;;;4976806;28;20037;-78
2023/05/29 10:06:30;;;;;;;2.97;1.27;;;;;;;;;;5000951;28;20442;-78
2023/05/29 10:08:57;;;;;;;4.40;1.83;;;;;;;;;;5006743;28;20034;-79
2023/05/29 10:11:27;;;;;;;3.45;1.25;;;;;;;;;;4987828;28;20025;-79
2023/05/29 10:13:54;;;;;;;3.88;1.60;;;;;;;;;;5006088;28;20057;-79
2023/05/29 10:16:23;;;;;;;3.15;1.50;;;;;;;;;;5022559;28;20949;-79
2023/05/29 10:19:01;;;;;;;3.85;1.70;;;;;;;;;;4997413;28;20048;-79
2023/05/29 10:21:30;;;;;;;3.75;1.48;;;;;;;;;;5005504;28;20045;-79
2023/05/29 10:23:56;;;;;;;2.90;1.40;;;;;;;;;;4997009;28;20473;-79
2023/05/29 10:26:26;;;;;;;5.85;1.65;;;;;;;;;;5005131;28;20029;-79
2023/05/29 10:29:28;;;;;;;4.05;1.60;;;;;;;;;;5005362;28;20036;-78
2023/05/29 10:32:06;;;;;;;4.93;1.75;;;;;;;;;;4957629;28;20035;-80
2023/05/29 10:34:47;;;;;;;3.55;1.40;;;;;;;;;;4944573;28;20135;-78
2023/05/29 10:37:22;;;;;;;2.92;1.40;;;;;;;;;;4953605;28;20558;-79
2023/05/29 10:39:48;;;;;;;3.92;1.63;;;;;;;;;;4952933;28;20418;-79
2023/05/29 10:42:38;;;;;;;3.97;1.73;;;;;;;;;;4925030;28;20047;-79
2023/05/29 10:45:04;;;;;;;9.63;3.75;;;;;;;;;;4935839;28;20047;-79
2023/05/29 10:47:31;;;;;;;5.20;2.30;;;;;;;;;;4930812;28;20110;-78
2023/05/29 10:50:02;;;;;;;5.97;2.00;;;;;;;;;;4929655;28;20051;-79
2023/05/29 10:52:33;;;;;;;3.90;1.50;;;;;;;;;;4927625;28;20103;-78
2023/05/29 10:55:00;;;;;;;5.65;1.85;;;;;;;;;;4945347;28;20043;-79
2023/05/29 10:57:26;;;;;;;3.83;1.58;;;;;;;;;;4928655;28;20119;-79
2023/05/29 11:00:12;;;;;;;4.22;1.70;;;;;;;;;;4903324;28;20557;-79
2023/05/29 11:02:39;;;;;;;4.10;1.70;;;;;;;;;;4945424;28;20047;-80
2023/05/29 11:05:24;;;;;;;4.07;1.17;;;;;;;;;;4944206;28;20054;-79
2023/05/29 11:07:53;;;;;;;3.90;1.20;;;;;;;;;;4934461;28;20050;-80
2023/05/29 11:10:47;;;;;;;3.47;1.30;;;;;;;;;;4984547;28;20060;-79
2023/05/29 11:13:28;;;;;;;4.07;1.33;;;;;;;;;;5021445;28;20144;-79
2023/05/29 11:16:21;;;;;;;2.47;1.17;;;;;;;;;;5020969;28;20045;-79
2023/05/29 11:18:53;;;;;;;2.88;1.15;;;;;;;;;;5011092;28;20584;-79
2023/05/29 11:21:31;;;;;;;3.03;1.20;;;;;;;;;;5030834;28;20046;-79
2023/05/29 11:23:58;;;;;;;3.70;1.42;;;;;;;;;;5021258;28;20041;-79
2023/05/29 11:26:27;;;;;;;3.63;1.42;;;;;;;;;;5020707;28;20033;-78
2023/05/29 11:28:55;;;;;;;4.28;1.60;;;;;;;;;;5002956;28;20092;-79
2023/05/29 11:31:22;;;;;;;4.43;1.30;;;;;;;;;;5005700;28;20041;-79
2023/05/29 11:33:50;;;;;;;2.90;1.50;;;;;;;;;;4969105;28;20053;-78
2023/05/29 11:36:18;;;;;;;3.60;1.45;;;;;;;;;;5010913;28;20606;-78
2023/05/29 11:38:43;;;;;;;2.80;1.30;;;;;;;;;;5021748;28;20041;-79
2023/05/29 11:41:10;;;;;;;4.45;1.33;;;;;;;;;;5005074;28;20037;-79
2023/05/29 11:43:35;;;;;;;3.40;1.20;;;;;;;;;;5003882;28;20595;-79
2023/05/29 11:46:02;;;;;;;3.95;1.30;;;;;;;;;;5004616;28;20166;-79
2023/05/29 11:48:27;;;;;;;3.33;1.10;;;;;;;;;;5003377;28;20088;-79
2023/05/29 11:50:53;;;;;;;3.65;1.30;;;;;;;;;;5021075;28;20467;-80
2023/05/29 11:53:19;;;;;;;2.53;1.27;;;;;;;;;;5006628;28;20034;-79
2023/05/29 11:55:44;;;;;;;3.42;1.23;;;;;;;;;;5027088;28;20401;-79
2023/05/29 11:58:16;;;;;;;4.13;1.52;;;;;;;;;;5026441;28;20388;-78
2023/05/29 12:00:43;;;;;;;4.28;1.65;;;;;;;;;;5004148;28;21056;-78
2023/05/29 12:03:09;;;;;;;3.33;1.30;;;;;;;;;;5000424;28;20030;-79
2023/05/29 12:05:55;;;;;;;2.60;1.15;;;;;;;;;;5024647;28;20057;-80
2023/05/29 12:08:24;;;;;;;4.80;1.45;;;;;;;;;;5008857;28;20441;-79
2023/05/29 12:10:52;;;;;;;2.85;1.35;;;;;;;;;;5012375;28;20029;-78
2023/05/29 12:13:23;;;;;;;3.70;1.58;;;;;;;;;;5016038;28;20046;-79
2023/05/29 12:15:53;;;;;;;5.47;1.88;;;;;;;;;;5013666;28;20033;-78
2023/05/29 12:18:19;;;;;;;2.70;1.25;;;;;;;;;;5022456;28;20057;-79
2023/05/29 12:20:46;;;;;;;4.53;1.50;;;;;;;;;;4988354;28;20080;-79
2023/05/29 12:23:12;;;;;;;3.88;1.27;;;;;;;;;;5024563;28;20040;-79
2023/05/29 12:25:38;;;;;;;3.83;1.50;;;;;;;;;;5024134;28;20120;-79
2023/05/29 12:28:05;;;;;;;4.13;1.23;;;;;;;;;;5024746;28;20040;-79
2023/05/29 12:30:37;;;;;;;4.57;1.63;;;;;;;;;;5023423;28;20051;-79
2023/05/29 12:33:06;;;;;;;4.15;1.20;;;;;;;;;;5003560;28;21870;-80
2023/05/29 12:35:32;;;;;;;5.30;1.42;;;;;;;;;;5009826;28;20091;-79
2023/05/29 12:38:10;;;;;;;5.25;1.63;;;;;;;;;;5022603;28;20037;-78
2023/05/29 12:40:39;;;;;;;4.55;1.50;;;;;;;;;;4965224;28;20042;-81
2023/05/29 12:43:10;;;;;;;3.70;1.45;;;;;;;;;;5011735;28;20471;-81
2023/05/29 12:45:36;;;;;;;4.18;1.60;;;;;;;;;;4988209;28;20106;-81
2023/05/29 12:48:06;;;;;;;4.88;1.55;;;;;;;;;;4992137;28;20534;-78
2023/05/29 12:50:34;;;;;;;4.55;1.30;;;;;;;;;;4989660;28;20406;-78
2023/05/29 12:53:07;;;;;;;3.63;1.40;;;;;;;;;;5005759;28;20030;-78
2023/05/29 12:55:38;;;;;;;6.30;1.70;;;;;;;;;;5005823;28;20132;-81
2023/05/29 12:58:23;;;;;;;5.60;1.55;;;;;;;;;;5003386;28;20038;-78
2023/05/29 13:00:55;;;;;;;3.45;1.45;;;;;;;;;;5001536;28;20484;-78
2023/05/29 13:03:23;;;;;;;3.53;1.45;;;;;;;;;;5003503;28;20060;-79
2023/05/29 13:05:52;;;;;;;4.03;1.17;;;;;;;;;;5022189;28;20126;-79
2023/05/29 13:08:20;;;;;;;3.65;1.35;;;;;;;;;;5008287;28;20048;-79
2023/05/29 13:10:45;;;;;;;;;;;;;;;;;;5019783;28;20030;-79
2023/05/29 13:13:12;;;;;;;5.07;1.67;;;;;;;;;;5004633;28;19917;-79
2023/05/29 13:15:40;;;;;;;4.32;1.50;;;;;;;;;;4996810;28;20424;-79
2023/05/29 13:18:06;;;;;;;4.07;1.40;;;;;;;;;;5001094;28;20507;-79
2023/05/29 13:20:33;;;;;;;2.78;1.20;;;;;;;;;;5033331;28;20651;-79
2023/05/29 13:23:02;;;;;;;3.35;1.40;;;;;;;;;;5022272;28;20042;-79
2023/05/29 13:25:28;;;;;;;3.78;1.40;;;;;;;;;;5024087;28;20068;-79
2023/05/29 13:27:54;;;;;;;4.53;1.50;;;;;;;;;;5006871;28;20029;-80
2023/05/29 13:30:22;;;;;;;3.50;1.27;;;;;;;;;;5023425;28;20087;-79
2023/05/29 13:32:47;;;;;;;3.00;1.30;;;;;;;;;;4994592;28;20080;-79
2023/05/29 13:35:13;;;;;;;4.68;1.38;;;;;;;;;;5012761;28;20535;-79
2023/05/29 13:37:39;;;;;;;4.30;1.55;;;;;;;;;;5012466;28;20416;-79
2023/05/29 13:40:06;;;;;;;3.35;1.40;;;;;;;;;;5006185;28;20036;-79
2023/05/29 13:42:31;;;;;;;4.05;1.33;;;;;;;;;;4998148;28;20582;-81
2023/05/29 13:44:56;;;;;;;3.53;1.42;;;;;;;;;;5008032;28;20132;-81
2023/05/29 13:47:22;;;;;;;3.55;1.20;;;;;;;;;;5006503;28;20091;-81
2023/05/29 13:49:47;;;;;;;3.78;1.40;;;;;;;;;;5024380;28;20044;-81
2023/05/29 13:52:16;;;;;;;3.75;1.30;;;;;;;;;;5023433;28;20419;-81
2023/05/29 13:54:41;;;;;;;4.07;1.55;;;;;;;;;;5025341;28;20037;-81
2023/05/29 13:57:07;;;;;;;3.65;1.20;;;;;;;;;;5026145;28;20026;-81
2023/05/29 13:59:34;;;;;;;3.75;1.30;;;;;;;;;;5023039;28;20552;-80
2023/05/29 14:01:59;;;;;;;3.25;1.25;;;;;;;;;;5023222;28;20056;-82
2023/05/29 14:04:25;;;;;;;2.97;1.08;;;;;;;;;;5023939;28;20038;-81
2023/05/29 14:06:51;;;;;;;4.55;1.40;;;;;;;;;;5022211;28;20045;-80
2023/05/29 14:09:19;;;;;;;4.85;1.42;;;;;;;;;;5023309;28;20152;-81
2023/05/29 14:11:44;;;;;;;3.35;1.15;;;;;;;;;;4987859;28;20067;-83
2023/05/29 14:14:10;;;;;;;3.55;1.25;;;;;;;;;;5025149;28;20037;-82
2023/05/29 14:16:35;;;;;;;3.33;1.27;;;;;;;;;;5024037;28;20386;-82
2023/05/29 14:19:01;;;;;;;3.78;1.20;;;;;;;;;;5021189;28;20041;-82
2023/05/29 14:21:26;;;;;;;4.95;1.30;;;;;;;;;;5020930;28;20499;-82
2023/05/29 14:23:51;;;;;;;4.32;1.30;;;;;;;;;;5017759;28;20075;-82
2023/05/29 14:26:19;;;;;;;5.10;1.50;;;;;;;;;;5022138;28;20500;-81
2023/05/29 14:28:47;;;;;;;4.05;1.42;;;;;;;;;;4992241;28;20116;-81
2023/05/29 14:31:14;;;;;;;3.53;1.25;;;;;;;;;;4989904;28;20091;-81
2023/05/29 14:33:40;;;;;;;2.93;1.30;;;;;;;;;;4965375;28;20371;-80
2023/05/29 14:36:06;;;;;;;4.07;1.20;;;;;;;;;;5005650;28;20061;-81
2023/05/29 14:38:31;;;;;;;3.97;1.52;;;;;;;;;;4980777;28;20498;-81
2023/05/29 14:40:57;;;;;;;4.75;1.27;;;;;;;;;;4997741;28;20061;-81
2023/05/29 14:43:25;;;;;;;4.32;1.15;;;;;;;;;;4990599;28;20116;-81
2023/05/29 14:45:52;;;;;;;4.85;1.25;;;;;;;;;;4994449;28;20026;-82
2023/05/29 14:48:17;;;;;;;6.57;1.45;;;;;;;;;;4987945;28;20037;-82
2023/05/29 14:50:43;;;;;;;3.70;1.40;;;;;;;;;;4993400;28;20731;-82